sensor_id;sensor_type;location;lat;lon;timestamp;temperature;humidity
49855;DHT22;35752;52.164;21.244;2022-12-05T00:03:56;1.50;99.90
49855;DHT22;35752;52.164;21.244;2022-12-05T00:06:23;1.60;99.90
49855;DHT22;35752;52.164;21.244;2022-12-05T00:08:50;1.60;99.90
49855;DHT22;35752;52.164;21.244;2022-12-05T00:11:29;1.50;99.90
49855;DHT22;35752;52.164;21.244;2022-12-05T00:13:57;1.60;99.90
49855;DHT22;35752;52.164;21.244;2022-12-05T00:16:26;1.60;99.90
49855;DHT22;35752;52.164;21.244;2022-12-05T00:18:52;1.60;99.90
49855;DHT22;35752;52.164;21.244;2022-12-05T00:21:24;1.60;99.90
49855;DHT22;35752;52.164;21.244;2022-12-05T00:23:51;1.60;99.90
49855;DHT22;35752;52.164;21.244;2022-12-05T00:26:17;1.60;99.90
49855;DHT22;35752;52.164;21.244;2022-12-05T00:28:44;1.60;99.90
49855;DHT22;35752;52.164;21.244;2022-12-05T00:31:12;1.70;99.90
49855;DHT22;35752;52.164;21.244;2022-12-05T00:33:38;1.70;99.90
49855;DHT22;35752;52.164;21.244;2022-12-05T00:36:07;1.70;99.90
49855;DHT22;35752;52.164;21.244;2022-12-05T00:38:33;1.70;99.90
49855;DHT22;35752;52.164;21.244;2022-12-05T00:41:11;1.70;99.90
49855;DHT22;35752;52.164;21.244;2022-12-05T00:43:37;1.60;99.90
49855;DHT22;35752;52.164;21.244;2022-12-05T00:46:05;1.60;99.90
49855;DHT22;35752;52.164;21.244;2022-12-05T00:48:32;1.50;99.90
49855;DHT22;35752;52.164;21.244;2022-12-05T00:51:06;1.50;99.90
49855;DHT22;35752;52.164;21.244;2022-12-05T00:53:32;1.50;99.90
49855;DHT22;35752;52.164;21.244;2022-12-05T00:56:10;1.50;99.90
49855;DHT22;35752;52.164;21.244;2022-12-05T00:58:36;1.50;99.90
49855;DHT22;35752;52.164;21.244;2022-12-05T01:01:16;1.40;99.90
49855;DHT22;35752;52.164;21.244;2022-12-05T01:03:43;1.40;99.90
49855;DHT22;35752;52.164;21.244;2022-12-05T01:06:09;1.40;99.90
49855;DHT22;35752;52.164;21.244;2022-12-05T01:08:36;1.50;99.90
49855;DHT22;35752;52.164;21.244;2022-12-05T01:11:02;1.40;99.90
49855;DHT22;35752;52.164;21.244;2022-12-05T01:13:28;1.40;99.90
49855;DHT22;35752;52.164;21.244;2022-12-05T01:15:54;1.40;99.90
49855;DHT22;35752;52.164;21.244;2022-12-05T01:18:20;1.40;99.90
49855;DHT22;35752;52.164;21.244;2022-12-05T01:20:47;1.40;99.90
49855;DHT22;35752;52.164;21.244;2022-12-05T01:23:13;1.30;99.90
49855;DHT22;35752;52.164;21.244;2022-12-05T01:25:40;1.40;99.90
49855;DHT22;35752;52.164;21.244;2022-12-05T01:28:07;1.40;99.90
49855;DHT22;35752;52.164;21.244;2022-12-05T01:30:36;1.40;99.90
49855;DHT22;35752;52.164;21.244;2022-12-05T01:33:02;1.40;99.90
49855;DHT22;35752;52.164;21.244;2022-12-05T01:35:31;1.40;99.90
49855;DHT22;35752;52.164;21.244;2022-12-05T01:37:56;1.40;99.90
49855;DHT22;35752;52.164;21.244;2022-12-05T01:40:22;1.40;99.90
49855;DHT22;35752;52.164;21.244;2022-12-05T01:42:48;1.50;99.90
49855;DHT22;35752;52.164;21.244;2022-12-05T01:45:17;1.40;99.90
49855;DHT22;35752;52.164;21.244;2022-12-05T01:47:43;1.40;99.90
49855;DHT22;35752;52.164;21.244;2022-12-05T01:50:10;1.40;99.90
49855;DHT22;35752;52.164;21.244;2022-12-05T01:52:37;1.40;99.90
49855;DHT22;35752;52.164;21.244;2022-12-05T01:55:08;1.30;99.90
49855;DHT22;35752;52.164;21.244;2022-12-05T01:57:35;1.30;99.90
49855;DHT22;35752;52.164;21.244;2022-12-05T02:00:08;1.30;99.90
49855;DHT22;35752;52.164;21.244;2022-12-05T02:02:34;1.30;99.90
49855;DHT22;35752;52.164;21.244;2022-12-05T02:05:07;1.30;99.90
49855;DHT22;35752;52.164;21.244;2022-12-05T02:07:34;1.40;99.90
49855;DHT22;35752;52.164;21.244;2022-12-05T02:10:02;1.40;99.90
49855;DHT22;35752;52.164;21.244;2022-12-05T02:12:28;1.40;99.90
49855;DHT22;35752;52.164;21.244;2022-12-05T02:15:30;1.30;99.90
49855;DHT22;35752;52.164;21.244;2022-12-05T02:21:05;1.30;99.90
49855;DHT22;35752;52.164;21.244;2022-12-05T02:35:01;1.30;99.90
49855;DHT22;35752;52.164;21.244;2022-12-05T02:37:52;1.20;99.90
49855;DHT22;35752;52.164;21.244;2022-12-05T02:40:22;1.30;99.90
49855;DHT22;35752;52.164;21.244;2022-12-05T02:43:15;1.30;99.90
49855;DHT22;35752;52.164;21.244;2022-12-05T02:45:39;1.20;99.90
49855;DHT22;35752;52.164;21.244;2022-12-05T02:48:06;1.30;99.90
49855;DHT22;35752;52.164;21.244;2022-12-05T02:50:35;1.30;99.90
49855;DHT22;35752;52.164;21.244;2022-12-05T02:53:09;1.20;99.90
49855;DHT22;35752;52.164;21.244;2022-12-05T02:55:36;1.30;99.90
49855;DHT22;35752;52.164;21.244;2022-12-05T02:58:06;1.30;99.90
49855;DHT22;35752;52.164;21.244;2022-12-05T03:00:34;1.20;99.90
49855;DHT22;35752;52.164;21.244;2022-12-05T03:03:01;1.20;99.90
49855;DHT22;35752;52.164;21.244;2022-12-05T03:05:34;1.20;99.90
49855;DHT22;35752;52.164;21.244;2022-12-05T03:08:05;1.30;99.90
49855;DHT22;35752;52.164;21.244;2022-12-05T03:10:33;1.30;99.90
49855;DHT22;35752;52.164;21.244;2022-12-05T03:13:06;1.40;99.90
49855;DHT22;35752;52.164;21.244;2022-12-05T03:15:38;1.30;99.90
49855;DHT22;35752;52.164;21.244;2022-12-05T03:36:36;1.20;99.90
49855;DHT22;35752;52.164;21.244;2022-12-05T03:39:12;1.20;99.90
49855;DHT22;35752;52.164;21.244;2022-12-05T03:42:15;1.20;99.90
49855;DHT22;35752;52.164;21.244;2022-12-05T03:44:59;1.20;99.90
49855;DHT22;35752;52.164;21.244;2022-12-05T03:47:47;1.10;99.90
49855;DHT22;35752;52.164;21.244;2022-12-05T03:50:24;1.20;99.90
49855;DHT22;35752;52.164;21.244;2022-12-05T03:52:57;1.20;99.90
49855;DHT22;35752;52.164;21.244;2022-12-05T03:55:26;1.20;99.90
49855;DHT22;35752;52.164;21.244;2022-12-05T03:58:16;1.20;99.90
49855;DHT22;35752;52.164;21.244;2022-12-05T04:00:45;1.20;99.90
49855;DHT22;35752;52.164;21.244;2022-12-05T04:03:15;1.30;99.90
49855;DHT22;35752;52.164;21.244;2022-12-05T04:05:50;1.30;99.90
49855;DHT22;35752;52.164;21.244;2022-12-05T04:08:24;1.30;99.90
49855;DHT22;35752;52.164;21.244;2022-12-05T04:10:53;1.30;99.90
49855;DHT22;35752;52.164;21.244;2022-12-05T04:13:33;1.40;99.90
49855;DHT22;35752;52.164;21.244;2022-12-05T04:16:27;1.30;99.90
49855;DHT22;35752;52.164;21.244;2022-12-05T04:21:50;1.30;99.90
49855;DHT22;35752;52.164;21.244;2022-12-05T04:24:27;1.40;99.90
49855;DHT22;35752;52.164;21.244;2022-12-05T04:30:09;1.30;99.90
49855;DHT22;35752;52.164;21.244;2022-12-05T04:35:28;1.20;99.90
49855;DHT22;35752;52.164;21.244;2022-12-05T04:37:59;1.20;99.90
49855;DHT22;35752;52.164;21.244;2022-12-05T04:40:51;1.20;99.90
49855;DHT22;35752;52.164;21.244;2022-12-05T04:43:19;1.20;99.90
49855;DHT22;35752;52.164;21.244;2022-12-05T04:45:46;1.20;99.90
49855;DHT22;35752;52.164;21.244;2022-12-05T04:48:14;1.20;99.90
49855;DHT22;35752;52.164;21.244;2022-12-05T04:50:44;1.10;99.90
49855;DHT22;35752;52.164;21.244;2022-12-05T04:53:11;1.10;99.90
49855;DHT22;35752;52.164;21.244;2022-12-05T04:55:40;1.20;99.90
49855;DHT22;35752;52.164;21.244;2022-12-05T04:58:14;1.20;99.90
49855;DHT22;35752;52.164;21.244;2022-12-05T05:01:06;1.20;99.90
49855;DHT22;35752;52.164;21.244;2022-12-05T05:03:54;1.20;99.90
49855;DHT22;35752;52.164;21.244;2022-12-05T05:06:21;1.20;99.90
49855;DHT22;35752;52.164;21.244;2022-12-05T05:08:54;1.20;99.90
49855;DHT22;35752;52.164;21.244;2022-12-05T05:11:25;1.20;99.90
49855;DHT22;35752;52.164;21.244;2022-12-05T05:13:52;1.20;99.90
49855;DHT22;35752;52.164;21.244;2022-12-05T05:16:27;1.20;99.90
49855;DHT22;35752;52.164;21.244;2022-12-05T05:18:53;1.20;99.90
49855;DHT22;35752;52.164;21.244;2022-12-05T05:21:30;1.20;99.90
49855;DHT22;35752;52.164;21.244;2022-12-05T05:23:57;1.20;99.90
49855;DHT22;35752;52.164;21.244;2022-12-05T05:26:24;1.20;99.90
49855;DHT22;35752;52.164;21.244;2022-12-05T05:28:50;1.20;99.90
49855;DHT22;35752;52.164;21.244;2022-12-05T05:31:17;1.20;99.90
49855;DHT22;35752;52.164;21.244;2022-12-05T05:33:43;1.10;99.90
49855;DHT22;35752;52.164;21.244;2022-12-05T05:36:12;1.20;99.90
49855;DHT22;35752;52.164;21.244;2022-12-05T05:38:44;1.20;99.90
49855;DHT22;35752;52.164;21.244;2022-12-05T05:41:30;1.10;99.90
49855;DHT22;35752;52.164;21.244;2022-12-05T05:43:57;1.20;99.90
49855;DHT22;35752;52.164;21.244;2022-12-05T05:46:25;1.20;99.90
49855;DHT22;35752;52.164;21.244;2022-12-05T05:48:51;1.20;99.90
49855;DHT22;35752;52.164;21.244;2022-12-05T05:51:18;1.30;99.90
49855;DHT22;35752;52.164;21.244;2022-12-05T05:53:44;1.30;99.90
49855;DHT22;35752;52.164;21.244;2022-12-05T05:56:15;1.30;99.90
49855;DHT22;35752;52.164;21.244;2022-12-05T05:58:41;1.30;99.90
49855;DHT22;35752;52.164;21.244;2022-12-05T06:03:33;1.30;99.90
49855;DHT22;35752;52.164;21.244;2022-12-05T06:06:01;1.30;99.90
49855;DHT22;35752;52.164;21.244;2022-12-05T06:08:29;1.40;99.90
49855;DHT22;35752;52.164;21.244;2022-12-05T06:10:55;1.30;99.90
49855;DHT22;35752;52.164;21.244;2022-12-05T06:13:21;1.30;99.90
49855;DHT22;35752;52.164;21.244;2022-12-05T06:15:46;1.30;99.90
49855;DHT22;35752;52.164;21.244;2022-12-05T06:18:12;1.30;99.90
49855;DHT22;35752;52.164;21.244;2022-12-05T06:20:38;1.30;99.90
49855;DHT22;35752;52.164;21.244;2022-12-05T06:23:03;1.30;99.90
49855;DHT22;35752;52.164;21.244;2022-12-05T06:25:29;1.30;99.90
49855;DHT22;35752;52.164;21.244;2022-12-05T06:27:55;1.30;99.90
49855;DHT22;35752;52.164;21.244;2022-12-05T06:30:20;1.30;99.90
49855;DHT22;35752;52.164;21.244;2022-12-05T06:32:46;1.40;99.90
49855;DHT22;35752;52.164;21.244;2022-12-05T06:35:12;1.40;99.90
49855;DHT22;35752;52.164;21.244;2022-12-05T06:37:43;1.30;99.90
49855;DHT22;35752;52.164;21.244;2022-12-05T06:40:10;1.30;99.90
49855;DHT22;35752;52.164;21.244;2022-12-05T06:42:36;1.30;99.90
49855;DHT22;35752;52.164;21.244;2022-12-05T06:45:03;1.30;99.90
49855;DHT22;35752;52.164;21.244;2022-12-05T06:47:29;1.30;99.90
49855;DHT22;35752;52.164;21.244;2022-12-05T06:49:54;1.40;99.90
49855;DHT22;35752;52.164;21.244;2022-12-05T06:52:20;1.40;99.90
49855;DHT22;35752;52.164;21.244;2022-12-05T06:54:46;1.40;99.90
49855;DHT22;35752;52.164;21.244;2022-12-05T06:57:12;1.40;99.90
49855;DHT22;35752;52.164;21.244;2022-12-05T06:59:38;1.40;99.90
49855;DHT22;35752;52.164;21.244;2022-12-05T07:02:04;1.50;99.90
49855;DHT22;35752;52.164;21.244;2022-12-05T07:04:33;1.50;99.90
49855;DHT22;35752;52.164;21.244;2022-12-05T07:06:58;1.50;99.90
49855;DHT22;35752;52.164;21.244;2022-12-05T07:09:27;1.40;99.90
49855;DHT22;35752;52.164;21.244;2022-12-05T07:12:16;1.40;99.90
49855;DHT22;35752;52.164;21.244;2022-12-05T07:14:42;1.50;99.90
49855;DHT22;35752;52.164;21.244;2022-12-05T07:17:08;1.50;99.90
49855;DHT22;35752;52.164;21.244;2022-12-05T07:19:34;1.50;99.90
49855;DHT22;35752;52.164;21.244;2022-12-05T07:22:00;1.50;99.90
49855;DHT22;35752;52.164;21.244;2022-12-05T07:24:26;1.40;99.90
49855;DHT22;35752;52.164;21.244;2022-12-05T07:26:52;1.50;99.90
49855;DHT22;35752;52.164;21.244;2022-12-05T07:29:18;1.50;99.90
49855;DHT22;35752;52.164;21.244;2022-12-05T07:31:43;1.50;99.90
49855;DHT22;35752;52.164;21.244;2022-12-05T07:34:09;1.50;99.90
49855;DHT22;35752;52.164;21.244;2022-12-05T07:36:35;1.50;99.90
49855;DHT22;35752;52.164;21.244;2022-12-05T07:39:00;1.50;99.90
49855;DHT22;35752;52.164;21.244;2022-12-05T07:41:29;1.50;99.90
49855;DHT22;35752;52.164;21.244;2022-12-05T07:43:56;1.50;99.90
49855;DHT22;35752;52.164;21.244;2022-12-05T07:46:23;1.60;99.90
49855;DHT22;35752;52.164;21.244;2022-12-05T07:48:49;1.60;99.90
49855;DHT22;35752;52.164;21.244;2022-12-05T07:51:16;1.50;99.90
49855;DHT22;35752;52.164;21.244;2022-12-05T07:53:42;1.60;99.90
49855;DHT22;35752;52.164;21.244;2022-12-05T07:56:10;1.60;99.90
49855;DHT22;35752;52.164;21.244;2022-12-05T07:58:38;1.60;99.90
49855;DHT22;35752;52.164;21.244;2022-12-05T08:01:09;1.60;99.90
49855;DHT22;35752;52.164;21.244;2022-12-05T08:03:35;1.70;99.90
49855;DHT22;35752;52.164;21.244;2022-12-05T08:06:05;1.70;99.90
49855;DHT22;35752;52.164;21.244;2022-12-05T08:08:31;1.60;99.90
49855;DHT22;35752;52.164;21.244;2022-12-05T08:11:03;1.60;99.90
49855;DHT22;35752;52.164;21.244;2022-12-05T08:13:28;1.60;99.90
49855;DHT22;35752;52.164;21.244;2022-12-05T08:15:54;1.60;99.90
49855;DHT22;35752;52.164;21.244;2022-12-05T08:18:19;1.60;99.90
49855;DHT22;35752;52.164;21.244;2022-12-05T08:20:45;1.60;99.90
49855;DHT22;35752;52.164;21.244;2022-12-05T08:23:11;1.50;99.90
49855;DHT22;35752;52.164;21.244;2022-12-05T08:25:36;1.50;99.90
49855;DHT22;35752;52.164;21.244;2022-12-05T08:28:02;1.60;99.90
49855;DHT22;35752;52.164;21.244;2022-12-05T08:30:28;1.50;99.90
49855;DHT22;35752;52.164;21.244;2022-12-05T08:32:53;1.60;99.90
49855;DHT22;35752;52.164;21.244;2022-12-05T08:35:19;1.50;99.90
49855;DHT22;35752;52.164;21.244;2022-12-05T08:37:45;1.60;99.90
49855;DHT22;35752;52.164;21.244;2022-12-05T08:40:10;1.60;99.90
49855;DHT22;35752;52.164;21.244;2022-12-05T08:42:36;1.70;99.90
49855;DHT22;35752;52.164;21.244;2022-12-05T08:45:02;1.70;99.90
49855;DHT22;35752;52.164;21.244;2022-12-05T08:47:27;1.70;99.90
49855;DHT22;35752;52.164;21.244;2022-12-05T08:49:53;1.70;99.90
49855;DHT22;35752;52.164;21.244;2022-12-05T08:52:19;1.70;99.90
49855;DHT22;35752;52.164;21.244;2022-12-05T08:54:46;1.80;99.90
49855;DHT22;35752;52.164;21.244;2022-12-05T08:57:11;1.80;99.90
49855;DHT22;35752;52.164;21.244;2022-12-05T08:59:37;1.90;99.90
49855;DHT22;35752;52.164;21.244;2022-12-05T09:02:03;1.80;99.90
49855;DHT22;35752;52.164;21.244;2022-12-05T09:04:28;1.90;99.90
49855;DHT22;35752;52.164;21.244;2022-12-05T09:06:54;2.00;99.90
49855;DHT22;35752;52.164;21.244;2022-12-05T09:09:20;2.00;99.90
49855;DHT22;35752;52.164;21.244;2022-12-05T09:11:45;2.00;99.90
49855;DHT22;35752;52.164;21.244;2022-12-05T09:14:13;2.00;99.90
49855;DHT22;35752;52.164;21.244;2022-12-05T09:16:39;2.00;99.90
49855;DHT22;35752;52.164;21.244;2022-12-05T09:19:11;2.00;99.90
49855;DHT22;35752;52.164;21.244;2022-12-05T09:21:37;2.00;99.90
49855;DHT22;35752;52.164;21.244;2022-12-05T09:24:03;1.90;99.90
49855;DHT22;35752;52.164;21.244;2022-12-05T09:26:29;2.00;99.90
49855;DHT22;35752;52.164;21.244;2022-12-05T09:28:54;2.00;99.90
49855;DHT22;35752;52.164;21.244;2022-12-05T09:31:23;1.90;99.90
49855;DHT22;35752;52.164;21.244;2022-12-05T09:33:50;2.00;99.90
49855;DHT22;35752;52.164;21.244;2022-12-05T09:38:43;1.80;99.90
49855;DHT22;35752;52.164;21.244;2022-12-05T09:45:06;1.80;99.90
49855;DHT22;35752;52.164;21.244;2022-12-05T09:48:09;1.80;99.90
49855;DHT22;35752;52.164;21.244;2022-12-05T09:51:00;1.80;99.90
49855;DHT22;35752;52.164;21.244;2022-12-05T09:53:39;1.80;99.90
49855;DHT22;35752;52.164;21.244;2022-12-05T09:56:12;1.80;99.90
49855;DHT22;35752;52.164;21.244;2022-12-05T09:58:47;1.90;99.90
49855;DHT22;35752;52.164;21.244;2022-12-05T10:07:14;2.00;99.90
49855;DHT22;35752;52.164;21.244;2022-12-05T10:17:53;2.00;99.90
49855;DHT22;35752;52.164;21.244;2022-12-05T10:20:26;2.00;99.90
49855;DHT22;35752;52.164;21.244;2022-12-05T10:23:20;2.00;99.90
49855;DHT22;35752;52.164;21.244;2022-12-05T10:25:43;2.00;99.90
49855;DHT22;35752;52.164;21.244;2022-12-05T10:28:19;2.00;99.90
49855;DHT22;35752;52.164;21.244;2022-12-05T10:30:58;2.00;99.90
49855;DHT22;35752;52.164;21.244;2022-12-05T10:33:39;2.00;99.90
49855;DHT22;35752;52.164;21.244;2022-12-05T10:36:12;2.00;99.90
49855;DHT22;35752;52.164;21.244;2022-12-05T10:38:38;2.00;99.90
49855;DHT22;35752;52.164;21.244;2022-12-05T10:41:06;2.00;99.90
49855;DHT22;35752;52.164;21.244;2022-12-05T10:43:33;2.00;99.90
49855;DHT22;35752;52.164;21.244;2022-12-05T10:46:01;2.10;99.90
49855;DHT22;35752;52.164;21.244;2022-12-05T10:48:28;2.00;99.90
49855;DHT22;35752;52.164;21.244;2022-12-05T10:50:57;2.00;99.90
49855;DHT22;35752;52.164;21.244;2022-12-05T10:53:26;2.10;99.90
49855;DHT22;35752;52.164;21.244;2022-12-05T10:55:52;2.10;99.90
49855;DHT22;35752;52.164;21.244;2022-12-05T10:58:20;2.10;99.90
49855;DHT22;35752;52.164;21.244;2022-12-05T11:00:53;2.10;99.90
49855;DHT22;35752;52.164;21.244;2022-12-05T11:03:26;2.20;99.90
49855;DHT22;35752;52.164;21.244;2022-12-05T11:06:01;2.20;99.90
49855;DHT22;35752;52.164;21.244;2022-12-05T11:08:31;2.20;99.90
49855;DHT22;35752;52.164;21.244;2022-12-05T11:11:04;2.20;99.90
49855;DHT22;35752;52.164;21.244;2022-12-05T11:13:31;2.10;99.90
49855;DHT22;35752;52.164;21.244;2022-12-05T11:15:57;2.10;99.90
49855;DHT22;35752;52.164;21.244;2022-12-05T11:18:30;2.10;99.90
49855;DHT22;35752;52.164;21.244;2022-12-05T11:21:10;2.10;99.90
49855;DHT22;35752;52.164;21.244;2022-12-05T11:23:37;2.10;99.90
49855;DHT22;35752;52.164;21.244;2022-12-05T11:26:05;2.10;99.90
49855;DHT22;35752;52.164;21.244;2022-12-05T11:28:39;2.10;99.90
49855;DHT22;35752;52.164;21.244;2022-12-05T11:33:32;2.20;99.90
49855;DHT22;35752;52.164;21.244;2022-12-05T11:36:13;2.20;99.90
49855;DHT22;35752;52.164;21.244;2022-12-05T11:38:42;2.30;99.90
49855;DHT22;35752;52.164;21.244;2022-12-05T11:43:52;2.30;99.90
49855;DHT22;35752;52.164;21.244;2022-12-05T11:46:43;2.30;99.90
49855;DHT22;35752;52.164;21.244;2022-12-05T11:52:00;2.20;99.90
49855;DHT22;35752;52.164;21.244;2022-12-05T11:54:54;2.20;99.90
49855;DHT22;35752;52.164;21.244;2022-12-05T12:08:26;2.40;99.90
49855;DHT22;35752;52.164;21.244;2022-12-05T12:11:13;2.40;99.90
49855;DHT22;35752;52.164;21.244;2022-12-05T12:14:00;2.40;99.90
49855;DHT22;35752;52.164;21.244;2022-12-05T12:22:36;2.40;99.90
49855;DHT22;35752;52.164;21.244;2022-12-05T12:30:48;2.40;99.90
49855;DHT22;35752;52.164;21.244;2022-12-05T12:47:12;2.40;99.90
49855;DHT22;35752;52.164;21.244;2022-12-05T12:52:23;2.40;99.90
49855;DHT22;35752;52.164;21.244;2022-12-05T13:00:12;2.60;99.90
49855;DHT22;35752;52.164;21.244;2022-12-05T13:02:53;2.50;99.90
49855;DHT22;35752;52.164;21.244;2022-12-05T13:10:46;2.60;99.90
49855;DHT22;35752;52.164;21.244;2022-12-05T13:13:19;2.60;99.90
49855;DHT22;35752;52.164;21.244;2022-12-05T13:15:50;2.60;99.90
49855;DHT22;35752;52.164;21.244;2022-12-05T13:18:20;2.60;99.90
49855;DHT22;35752;52.164;21.244;2022-12-05T13:20:49;2.60;99.90
49855;DHT22;35752;52.164;21.244;2022-12-05T13:23:19;2.70;99.90
49855;DHT22;35752;52.164;21.244;2022-12-05T13:25:46;2.70;99.90
49855;DHT22;35752;52.164;21.244;2022-12-05T13:30:48;2.60;99.90
49855;DHT22;35752;52.164;21.244;2022-12-05T13:33:24;2.60;99.90
49855;DHT22;35752;52.164;21.244;2022-12-05T13:35:55;2.70;99.90
49855;DHT22;35752;52.164;21.244;2022-12-05T13:38:41;2.60;99.90
49855;DHT22;35752;52.164;21.244;2022-12-05T13:41:42;2.60;99.90
49855;DHT22;35752;52.164;21.244;2022-12-05T13:44:43;2.50;99.90
49855;DHT22;35752;52.164;21.244;2022-12-05T13:50:13;2.50;99.90
49855;DHT22;35752;52.164;21.244;2022-12-05T13:52:48;2.50;99.90
49855;DHT22;35752;52.164;21.244;2022-12-05T13:55:37;2.50;99.90
49855;DHT22;35752;52.164;21.244;2022-12-05T14:00:44;2.40;99.90
49855;DHT22;35752;52.164;21.244;2022-12-05T14:06:01;2.40;99.90
49855;DHT22;35752;52.164;21.244;2022-12-05T14:15:49;2.40;99.90
49855;DHT22;35752;52.164;21.244;2022-12-05T14:18:21;2.30;99.90
49855;DHT22;35752;52.164;21.244;2022-12-05T14:29:06;2.40;99.90
49855;DHT22;35752;52.164;21.244;2022-12-05T14:34:31;2.40;99.90
49855;DHT22;35752;52.164;21.244;2022-12-05T14:37:53;2.30;99.90
49855;DHT22;35752;52.164;21.244;2022-12-05T14:39:57;2.40;99.90
49855;DHT22;35752;52.164;21.244;2022-12-05T14:42:40;2.30;99.90
49855;DHT22;35752;52.164;21.244;2022-12-05T14:48:00;2.30;99.90
49855;DHT22;35752;52.164;21.244;2022-12-05T14:50:38;2.20;99.90
49855;DHT22;35752;52.164;21.244;2022-12-05T14:55:48;2.20;99.90
49855;DHT22;35752;52.164;21.244;2022-12-05T14:58:20;2.20;99.90
49855;DHT22;35752;52.164;21.244;2022-12-05T15:01:01;2.30;99.90
49855;DHT22;35752;52.164;21.244;2022-12-05T15:03:37;2.30;99.90
49855;DHT22;35752;52.164;21.244;2022-12-05T15:06:05;2.20;99.90
49855;DHT22;35752;52.164;21.244;2022-12-05T15:08:46;2.30;99.90
49855;DHT22;35752;52.164;21.244;2022-12-05T15:11:16;2.30;99.90
49855;DHT22;35752;52.164;21.244;2022-12-05T15:14:11;2.20;99.90
49855;DHT22;35752;52.164;21.244;2022-12-05T15:16:42;2.20;99.90
49855;DHT22;35752;52.164;21.244;2022-12-05T15:19:28;2.20;99.90
49855;DHT22;35752;52.164;21.244;2022-12-05T15:21:57;2.20;99.90
49855;DHT22;35752;52.164;21.244;2022-12-05T15:24:24;2.30;99.90
49855;DHT22;35752;52.164;21.244;2022-12-05T15:26:57;2.20;99.90
49855;DHT22;35752;52.164;21.244;2022-12-05T15:29:25;2.20;99.90
49855;DHT22;35752;52.164;21.244;2022-12-05T15:32:00;2.20;99.90
49855;DHT22;35752;52.164;21.244;2022-12-05T15:34:38;2.30;99.90
49855;DHT22;35752;52.164;21.244;2022-12-05T15:37:31;2.30;99.90
49855;DHT22;35752;52.164;21.244;2022-12-05T15:40:00;2.30;99.90
49855;DHT22;35752;52.164;21.244;2022-12-05T15:42:29;2.20;99.90
49855;DHT22;35752;52.164;21.244;2022-12-05T15:47:36;2.30;99.90
49855;DHT22;35752;52.164;21.244;2022-12-05T15:50:02;2.30;99.90
49855;DHT22;35752;52.164;21.244;2022-12-05T15:52:51;2.30;99.90
49855;DHT22;35752;52.164;21.244;2022-12-05T15:55:29;2.30;99.90
49855;DHT22;35752;52.164;21.244;2022-12-05T15:58:00;2.30;99.90
49855;DHT22;35752;52.164;21.244;2022-12-05T16:00:28;2.30;99.90
49855;DHT22;35752;52.164;21.244;2022-12-05T16:02:59;2.30;99.90
49855;DHT22;35752;52.164;21.244;2022-12-05T16:05:32;2.30;99.90
49855;DHT22;35752;52.164;21.244;2022-12-05T16:08:01;2.40;99.90
49855;DHT22;35752;52.164;21.244;2022-12-05T16:10:29;2.30;99.90
49855;DHT22;35752;52.164;21.244;2022-12-05T16:12:55;2.30;99.90
49855;DHT22;35752;52.164;21.244;2022-12-05T16:15:26;2.30;99.90
49855;DHT22;35752;52.164;21.244;2022-12-05T16:17:58;2.40;99.90
49855;DHT22;35752;52.164;21.244;2022-12-05T16:20:34;2.40;99.90
49855;DHT22;35752;52.164;21.244;2022-12-05T16:23:03;2.30;99.90
49855;DHT22;35752;52.164;21.244;2022-12-05T16:25:36;2.30;99.90
49855;DHT22;35752;52.164;21.244;2022-12-05T16:28:03;2.30;99.90
49855;DHT22;35752;52.164;21.244;2022-12-05T16:30:39;2.40;99.90
49855;DHT22;35752;52.164;21.244;2022-12-05T16:33:11;2.30;99.90
49855;DHT22;35752;52.164;21.244;2022-12-05T16:35:47;2.30;99.90
49855;DHT22;35752;52.164;21.244;2022-12-05T16:38:28;2.40;99.90
49855;DHT22;35752;52.164;21.244;2022-12-05T16:45:59;2.40;99.90
49855;DHT22;35752;52.164;21.244;2022-12-05T16:48:32;2.40;99.90
49855;DHT22;35752;52.164;21.244;2022-12-05T16:51:24;2.40;99.90
49855;DHT22;35752;52.164;21.244;2022-12-05T16:53:52;2.50;99.90
49855;DHT22;35752;52.164;21.244;2022-12-05T16:56:22;2.50;99.90
49855;DHT22;35752;52.164;21.244;2022-12-05T16:58:48;2.50;99.90
49855;DHT22;35752;52.164;21.244;2022-12-05T17:01:20;2.40;99.90
49855;DHT22;35752;52.164;21.244;2022-12-05T17:03:46;2.40;99.90
49855;DHT22;35752;52.164;21.244;2022-12-05T17:06:12;2.40;99.90
49855;DHT22;35752;52.164;21.244;2022-12-05T17:08:39;2.50;99.90
49855;DHT22;35752;52.164;21.244;2022-12-05T17:11:13;2.50;99.90
49855;DHT22;35752;52.164;21.244;2022-12-05T17:13:40;2.50;99.90
49855;DHT22;35752;52.164;21.244;2022-12-05T17:16:06;2.50;99.90
49855;DHT22;35752;52.164;21.244;2022-12-05T17:18:32;2.50;99.90
49855;DHT22;35752;52.164;21.244;2022-12-05T17:20:59;2.50;99.90
49855;DHT22;35752;52.164;21.244;2022-12-05T17:23:26;2.50;99.90
49855;DHT22;35752;52.164;21.244;2022-12-05T17:25:54;2.50;99.90
49855;DHT22;35752;52.164;21.244;2022-12-05T17:28:21;2.50;99.90
49855;DHT22;35752;52.164;21.244;2022-12-05T17:30:47;2.50;99.90
49855;DHT22;35752;52.164;21.244;2022-12-05T17:33:14;2.60;99.90
49855;DHT22;35752;52.164;21.244;2022-12-05T17:35:40;2.60;99.90
49855;DHT22;35752;52.164;21.244;2022-12-05T17:38:07;2.60;99.90
49855;DHT22;35752;52.164;21.244;2022-12-05T17:40:33;2.60;99.90
49855;DHT22;35752;52.164;21.244;2022-12-05T17:42:59;2.60;99.90
49855;DHT22;35752;52.164;21.244;2022-12-05T17:45:25;2.60;99.90
49855;DHT22;35752;52.164;21.244;2022-12-05T17:47:51;2.60;99.90
49855;DHT22;35752;52.164;21.244;2022-12-05T17:50:19;2.60;99.90
49855;DHT22;35752;52.164;21.244;2022-12-05T17:52:46;2.60;99.90
49855;DHT22;35752;52.164;21.244;2022-12-05T17:55:27;2.70;99.90
49855;DHT22;35752;52.164;21.244;2022-12-05T17:57:53;2.70;99.90
49855;DHT22;35752;52.164;21.244;2022-12-05T18:00:21;2.70;99.90
49855;DHT22;35752;52.164;21.244;2022-12-05T18:02:47;2.70;99.90
49855;DHT22;35752;52.164;21.244;2022-12-05T18:05:13;2.70;99.90
49855;DHT22;35752;52.164;21.244;2022-12-05T18:07:42;2.70;99.90
49855;DHT22;35752;52.164;21.244;2022-12-05T18:10:16;2.70;99.90
49855;DHT22;35752;52.164;21.244;2022-12-05T18:12:44;2.70;99.90
49855;DHT22;35752;52.164;21.244;2022-12-05T18:15:10;2.70;99.90
49855;DHT22;35752;52.164;21.244;2022-12-05T18:17:36;2.70;99.90
49855;DHT22;35752;52.164;21.244;2022-12-05T18:20:03;2.70;99.90
49855;DHT22;35752;52.164;21.244;2022-12-05T18:22:29;2.70;99.90
49855;DHT22;35752;52.164;21.244;2022-12-05T18:24:55;2.60;99.90
49855;DHT22;35752;52.164;21.244;2022-12-05T18:27:22;2.70;99.90
49855;DHT22;35752;52.164;21.244;2022-12-05T18:29:52;2.70;99.90
49855;DHT22;35752;52.164;21.244;2022-12-05T18:32:18;2.70;99.90
49855;DHT22;35752;52.164;21.244;2022-12-05T18:34:44;2.70;99.90
49855;DHT22;35752;52.164;21.244;2022-12-05T18:37:10;2.70;99.90
49855;DHT22;35752;52.164;21.244;2022-12-05T18:39:37;2.80;99.90